CDT,Max TemperatureF,Mean TemperatureF,Min TemperatureF,Max Dew PointF,MeanDew PointF,Min DewpointF,Max Humidity, Mean Humidity, Min Humidity, Max Sea Level PressureIn, Mean Sea Level PressureIn, Min Sea Level PressureIn, Max VisibilityMiles, Mean VisibilityMiles, Min VisibilityMiles, Max Wind SpeedMPH, Mean Wind SpeedMPH, Max Gust SpeedMPH,PrecipitationIn, CloudCover, Events, WindDirDegrees
2013-3-1,71,54,37,46,34,25,76,50,18,30.30,30.22,30.15,10,10,10,15,7,22,0.00,1,,301
2013-3-2,63,52,42,38,26,17,76,43,18,30.41,30.32,30.27,10,10,10,25,12,32,0.00,0,,354
2013-3-3,66,52,39,53,40,27,72,56,38,30.30,30.19,30.02,10,10,10,18,8,23,0.00,0,,143
2013-3-4,72,67,62,62,59,54,84,75,66,30.01,29.89,29.81,10,10,9,20,15,28,0.00,0,,185
2013-3-5,72,62,48,63,43,24,88,54,17,30.32,30.11,29.84,10,10,7,30,16,44,0.00,4,,340
2013-3-6,64,49,34,44,32,23,83,52,22,30.45,30.33,30.25,10,10,9,12,8,,0.00,0,,69
2013-3-7,72,59,46,54,49,42,90,70,47,30.26,30.20,30.16,10,10,10,21,8,26,0.00,0,,102
2013-3-8,75,66,57,62,59,54,90,75,61,30.17,30.11,30.06,10,10,10,22,11,29,0.00,3,,111
2013-3-9,71,68,66,64,63,61,87,83,78,30.03,29.91,29.74,10,10,8,18,13,,0.00,1,,148
2013-3-10,73,65,55,54,45,39,70,49,38,30.08,29.88,29.70,10,10,10,21,17,24,0.00,6,,358
2013-3-11,69,56,43,42,29,17,76,40,14,30.16,30.08,30.01,10,10,10,24,12,30,0.00,1,,356
2013-3-12,71,56,42,49,38,30,74,51,29,30.24,30.15,30.09,10,10,9,16,7,,0.00,0,,136
2013-3-13,73,60,46,51,44,35,90,62,24,30.43,30.35,30.24,10,10,7,18,9,,0.00,0,,95
2013-3-14,73,60,46,57,48,43,93,74,42,30.41,30.34,30.30,10,6,0,15,5,22,0.00,0,Fog,117
2013-3-15,75,65,57,61,58,52,93,77,59,30.28,30.18,30.08,10,10,9,16,9,,0.00,0,,170
2013-3-16,78,70,64,63,61,58,84,73,60,30.06,29.94,29.86,10,10,10,22,13,30,0.00,0,,169
2013-3-17,79,74,68,68,66,63,90,78,65,29.86,29.77,29.71,10,9,6,20,13,25,0.00,5,,157
2013-3-18,79,72,66,68,66,63,94,80,64,29.89,29.79,29.74,9,6,3,12,8,,0.00,4,,180
2013-3-19,79,70,60,66,62,54,87,75,61,29.99,29.92,29.86,10,9,6,22,12,26,0.00,5,,89
2013-3-20,78,70,61,64,56,46,88,68,33,30.15,30.03,29.92,10,9,7,29,14,37,0.00,4,Rain,59
2013-3-21,75,66,57,64,58,52,81,69,51,30.03,29.84,29.71,10,10,10,23,11,30,0.00,6,,147
2013-3-22,78,74,71,70,68,66,88,83,74,29.75,29.70,29.66,10,8,5,16,12,22,0.00,8,,158
2013-3-23,79,71,64,70,64,61,94,82,64,29.72,29.67,29.59,7,5,1,15,9,,0.00,5,,74
2013-3-24,66,57,45,64,43,24,94,59,20,30.15,29.91,29.66,10,7,0,32,16,43,0.00,3,Fog,356
2013-3-25,66,52,39,31,22,13,70,37,13,30.37,30.26,30.15,10,10,10,24,11,29,0.00,0,,7
2013-3-26,68,52,37,40,26,17,65,39,14,30.49,30.40,30.33,10,10,10,14,8,20,0.00,0,,55
2013-3-27,70,56,43,54,44,34,71,58,36,30.36,30.30,30.23,10,10,10,18,9,24,0.00,3,,129
2013-3-28,73,68,63,60,58,55,87,70,57,30.25,30.21,30.17,10,10,10,18,10,25,0.00,7,,134
2013-3-29,78,67,57,63,60,55,94,77,56,30.21,30.16,30.12,10,9,2,17,7,23,0.00,3,,127
2013-3-30,79,69,60,66,63,57,90,78,62,30.13,30.05,29.98,10,9,2,18,9,23,0.00,1,,153
2013-3-31,79,74,69,68,67,66,90,82,65,29.98,29.93,29.85,10,8,5,21,11,71,0.00,4,,172